Time;durP1;ratioP1;P1;durP2;ratioP2;P2;SDS_P1;SDS_P2;PMS_P1;PMS_P2;Temp;Humidity;BMP_temperature;BMP_pressure;BME280_temperature;BME280_humidity;BME280_pressure;Samples;Min_cycle;Max_cycle;Signal;HPM_P1;HPM_P2
2023/03/27 00:00:57;;;;;;;13.40;1.80;;;;;;;2.93;92.10;101545.19;5070811;28;20037;-40
2023/03/27 00:03:24;;;;;;;12.45;1.80;;;;;;;2.92;93.08;101553.59;5076108;28;20157;-40
2023/03/27 00:06:08;;;;;;;12.05;2.10;;;;;;;2.95;93.15;101555.47;5065138;28;20035;-40
2023/03/27 00:08:33;;;;;;;8.02;1.60;;;;;;;2.91;92.38;101556.00;5073269;28;20085;-40
2023/03/27 00:11:00;;;;;;;12.40;1.80;;;;;;;2.88;93.53;101563.44;5062459;28;20032;-40
2023/03/27 00:13:27;;;;;;;9.52;1.60;;;;;;;2.85;93.49;101570.81;5074777;28;20174;-41
2023/03/27 00:15:55;;;;;;;12.15;1.77;;;;;;;2.82;94.59;101570.63;5056286;28;20395;-41
2023/03/27 00:18:21;;;;;;;11.07;1.65;;;;;;;2.79;94.80;101565.31;5070354;28;20061;-40
2023/03/27 00:20:48;;;;;;;12.98;1.80;;;;;;;2.78;94.92;101573.72;5077650;28;20033;-41
2023/03/27 00:23:13;;;;;;;11.52;1.63;;;;;;;2.76;95.37;101576.16;5076025;28;20063;-40
2023/03/27 00:25:39;;;;;;;13.07;1.83;;;;;;;2.74;96.40;101587.00;5072993;28;20117;-40
2023/03/27 00:28:07;;;;;;;8.85;1.80;;;;;;;2.75;96.17;101596.38;5075016;28;20035;-39
2023/03/27 00:30:32;;;;;;;7.05;1.40;;;;;;;2.77;95.93;101599.88;5075967;28;20491;-40
2023/03/27 00:32:58;;;;;;;12.55;1.70;;;;;;;2.76;97.01;101595.59;5072741;28;20032;-40
2023/03/27 00:35:25;;;;;;;14.50;1.83;;;;;;;2.77;97.55;101597.34;5070757;28;20046;-39
2023/03/27 00:37:51;;;;;;;7.20;1.33;;;;;;;2.77;96.98;101599.88;5067716;28;20036;-39
2023/03/27 00:40:16;;;;;;;10.15;1.60;;;;;;;2.76;96.94;101603.19;5068907;28;20044;-39
2023/03/27 00:42:51;;;;;;;12.88;1.80;;;;;;;2.75;96.43;101602.31;5069981;28;20066;-40
2023/03/27 00:45:18;;;;;;;10.32;1.83;;;;;;;2.73;96.45;101602.97;5071908;28;20055;-49
2023/03/27 00:47:45;;;;;;;12.88;1.73;;;;;;;2.73;97.07;101611.50;5069793;28;20039;-48
2023/03/27 00:50:15;;;;;;;8.07;1.80;;;;;;;2.75;97.32;101606.53;5070433;28;20051;-47
2023/03/27 00:52:46;;;;;;;12.93;1.85;;;;;;;2.79;96.75;101616.09;5069826;28;20528;-46
2023/03/27 00:55:15;;;;;;;6.88;1.60;;;;;;;2.81;97.30;101623.09;5070203;28;20765;-48
2023/03/27 00:57:44;;;;;;;9.53;1.63;;;;;;;2.85;97.10;101627.63;5073887;28;20116;-48
2023/03/27 01:00:13;;;;;;;9.55;1.83;;;;;;;2.88;96.98;101644.72;5071915;28;20062;-47
2023/03/27 01:02:41;;;;;;;7.95;1.90;;;;;;;2.89;98.90;101644.81;5072479;28;20055;-48
2023/03/27 01:05:08;;;;;;;8.43;1.40;;;;;;;2.88;100.00;101644.72;5071949;28;20048;-46
2023/03/27 01:07:35;;;;;;;8.82;1.80;;;;;;;2.87;100.00;101642.97;5074373;28;20088;-48
2023/03/27 01:10:03;;;;;;;11.50;1.70;;;;;;;2.88;100.00;101649.78;5073451;28;20040;-49
2023/03/27 01:12:53;;;;;;;6.47;1.30;;;;;;;2.88;100.00;101649.78;5067901;28;20036;-46
2023/03/27 01:15:47;;;;;;;5.80;1.20;;;;;;;2.85;100.00;101647.03;5074045;28;20047;-46
2023/03/27 01:18:37;;;;;;;11.55;1.35;;;;;;;2.79;100.00;101641.50;5069043;28;20504;-47
2023/03/27 01:21:06;;;;;;;6.40;1.30;;;;;;;2.77;100.00;101643.06;5067690;28;20032;-44
2023/03/27 01:23:54;;;;;;;4.05;1.30;;;;;;;2.72;100.00;101631.69;5073900;28;20032;-46
2023/03/27 01:26:57;;;;;;;5.57;1.20;;;;;;;2.69;100.00;101643.41;5069390;28;20553;-46
2023/03/27 01:29:41;;;;;;;8.02;1.58;;;;;;;2.68;100.00;101650.91;5075970;28;20032;-46
2023/03/27 01:32:34;;;;;;;6.03;1.27;;;;;;;2.65;100.00;101653.22;5071299;28;20059;-48
2023/03/27 01:35:18;;;;;;;7.65;1.45;;;;;;;2.64;100.00;101657.41;5069701;28;20099;-46
2023/03/27 01:37:50;;;;;;;9.30;1.58;;;;;;;2.60;100.00;101660.50;5072249;28;20059;-45
2023/03/27 01:40:24;;;;;;;9.25;2.33;;;;;;;2.57;100.00;101665.38;5073813;28;20030;-46
2023/03/27 01:42:53;;;;;;;7.63;2.05;;;;;;;2.54;100.00;101670.19;5070185;28;20028;-47
2023/03/27 01:45:28;;;;;;;16.60;2.33;;;;;;;2.53;100.00;101676.06;5071956;28;20025;-46
2023/03/27 01:48:03;;;;;;;10.43;2.40;;;;;;;2.50;100.00;101670.78;5065947;28;20024;-48
2023/03/27 01:50:38;;;;;;;11.68;2.13;;;;;;;2.47;100.00;101673.06;5070251;28;20086;-46
2023/03/27 01:53:13;;;;;;;12.40;1.90;;;;;;;2.47;100.00;101682.34;5075849;28;20020;-46
2023/03/27 01:55:44;;;;;;;9.68;2.38;;;;;;;2.46;100.00;101675.50;5073537;28;20017;-41
2023/03/27 01:58:15;;;;;;;12.27;2.28;;;;;;;2.45;100.00;101678.81;5068197;28;20475;-41
2023/03/27 02:00:44;;;;;;;9.93;2.30;;;;;;;2.43;100.00;101676.19;5074851;28;20032;-40
2023/03/27 02:03:25;;;;;;;9.57;2.33;;;;;;;2.42;100.00;101685.41;5075748;28;20486;-40
2023/03/27 02:06:00;;;;;;;8.63;2.00;;;;;;;2.40;100.00;101681.00;5076530;28;20128;-40
2023/03/27 02:08:36;;;;;;;9.38;2.40;;;;;;;2.37;100.00;101683.34;5077265;28;20078;-40
2023/03/27 02:11:03;;;;;;;9.77;2.53;;;;;;;2.35;100.00;101687.41;5073731;28;20020;-41
2023/03/27 02:14:06;;;;;;;11.45;2.72;;;;;;;2.31;100.00;101700.66;5074133;28;20487;-40
2023/03/27 02:16:41;;;;;;;11.02;2.17;;;;;;;2.26;100.00;101701.97;5073033;28;20106;-41
2023/03/27 02:19:19;;;;;;;10.50;2.28;;;;;;;2.23;100.00;101711.88;5074962;28;20099;-40
2023/03/27 02:21:46;;;;;;;8.45;2.15;;;;;;;2.18;100.00;101705.56;5066135;28;20630;-40
2023/03/27 02:24:14;;;;;;;10.15;2.55;;;;;;;2.14;100.00;101719.69;5076574;28;20029;-40
2023/03/27 02:26:40;;;;;;;11.43;2.67;;;;;;;2.10;100.00;101723.63;5071528;28;20040;-40
2023/03/27 02:29:18;;;;;;;8.98;2.35;;;;;;;2.06;100.00;101724.19;5072886;28;20483;-41
2023/03/27 02:32:04;;;;;;;10.13;2.75;;;;;;;2.03;100.00;101723.94;5080496;28;20047;-40
2023/03/27 02:34:57;;;;;;;10.88;2.72;;;;;;;2.01;100.00;101725.50;5071439;28;20371;-40
2023/03/27 02:37:28;;;;;;;14.77;2.85;;;;;;;1.96;100.00;101728.44;5071952;28;20043;-40
2023/03/27 02:40:13;;;;;;;12.93;2.63;;;;;;;1.90;100.00;101728.84;5073709;28;20028;-40
2023/03/27 02:42:56;;;;;;;11.93;2.78;;;;;;;1.88;100.00;101728.75;5075153;28;20036;-40
2023/03/27 02:45:33;;;;;;;9.65;2.90;;;;;;;1.85;100.00;101730.16;5070303;28;20506;-40
2023/03/27 02:48:30;;;;;;;12.98;2.85;;;;;;;1.84;100.00;101730.94;5075575;28;20044;-41
2023/03/27 02:51:01;;;;;;;9.18;2.97;;;;;;;1.83;100.00;101737.66;5065030;28;20072;-40
2023/03/27 02:53:31;;;;;;;11.48;3.50;;;;;;;1.85;100.00;101742.84;5074339;28;20029;-39
2023/03/27 02:56:02;;;;;;;14.10;3.05;;;;;;;1.86;100.00;101742.94;5067198;28;20036;-40
2023/03/27 02:58:51;;;;;;;10.20;3.30;;;;;;;1.90;100.00;101748.25;5076230;28;20020;-40
2023/03/27 03:01:19;;;;;;;12.40;3.75;;;;;;;1.92;100.00;101751.78;5074401;28;20147;-40
2023/03/27 03:03:47;;;;;;;12.45;2.75;;;;;;;1.93;100.00;101746.84;5081445;28;20027;-39
2023/03/27 03:06:13;;;;;;;12.53;2.50;;;;;;;1.96;100.00;101746.19;5076581;28;20367;-40
2023/03/27 03:08:39;;;;;;;12.98;2.72;;;;;;;1.95;100.00;101752.94;5075984;28;20314;-40
2023/03/27 03:11:08;;;;;;;13.65;2.42;;;;;;;1.98;100.00;101764.94;5077586;28;20025;-40
2023/03/27 03:13:33;;;;;;;13.63;3.28;;;;;;;1.93;100.00;101766.25;5076775;28;20495;-41
2023/03/27 03:15:59;;;;;;;12.52;2.65;;;;;;;1.90;100.00;101773.63;5072903;28;20032;-41
2023/03/27 03:18:25;;;;;;;6.75;2.08;;;;;;;1.86;100.00;101780.09;5078836;28;20032;-41
2023/03/27 03:20:53;;;;;;;11.80;2.40;;;;;;;1.83;100.00;101777.34;5075298;28;20553;-40
2023/03/27 03:23:20;;;;;;;11.20;2.60;;;;;;;1.81;100.00;101787.34;5075012;28;20028;-40
2023/03/27 03:25:49;;;;;;;9.18;2.13;;;;;;;1.78;100.00;101786.25;5054890;28;20032;-40
2023/03/27 03:28:17;;;;;;;8.27;2.10;;;;;;;1.76;100.00;101788.66;5067197;28;20024;-40
2023/03/27 03:30:46;;;;;;;10.45;2.40;;;;;;;1.73;100.00;101785.88;5071165;28;20406;-40
2023/03/27 03:33:13;;;;;;;7.75;2.45;;;;;;;1.71;100.00;101784.88;5069726;28;20021;-40
2023/03/27 03:35:38;;;;;;;8.48;2.20;;;;;;;1.67;100.00;101795.53;5072363;28;20023;-40
2023/03/27 03:38:05;;;;;;;10.35;2.20;;;;;;;1.67;100.00;101800.59;5073641;28;20037;-40
2023/03/27 03:40:31;;;;;;;11.95;2.08;;;;;;;1.67;100.00;101803.16;5076643;28;20027;-40
2023/03/27 03:42:57;;;;;;;10.27;2.28;;;;;;;1.67;100.00;101812.41;5055596;28;20397;-40
2023/03/27 03:45:22;;;;;;;8.27;2.00;;;;;;;1.68;100.00;101819.25;5073009;28;20483;-40
2023/03/27 03:47:47;;;;;;;18.48;2.33;;;;;;;1.68;100.00;101811.63;5071151;28;20038;-39
2023/03/27 03:50:13;;;;;;;8.43;2.55;;;;;;;1.69;100.00;101811.75;5054899;28;20059;-40
2023/03/27 03:52:39;;;;;;;13.07;2.10;;;;;;;1.72;100.00;101823.78;5075959;28;20033;-40
2023/03/27 03:55:06;;;;;;;10.43;2.58;;;;;;;1.72;100.00;101828.88;5069777;28;20020;-41
2023/03/27 03:57:31;;;;;;;4.40;1.70;;;;;;;1.71;100.00;101827.97;5074504;28;20032;-40
2023/03/27 03:59:57;;;;;;;6.97;1.67;;;;;;;1.72;100.00;101831.41;5079939;28;20500;-40
2023/03/27 04:02:29;;;;;;;10.52;1.77;;;;;;;1.72;100.00;101834.81;5069459;28;20093;-40
2023/03/27 04:04:56;;;;;;;6.80;1.85;;;;;;;1.69;100.00;101844.69;5074881;28;20033;-40
2023/03/27 04:07:23;;;;;;;8.77;1.80;;;;;;;1.68;100.00;101842.06;5069870;28;20032;-40
2023/03/27 04:09:49;;;;;;;12.85;2.20;;;;;;;1.66;100.00;101848.66;5070954;28;20013;-39
2023/03/27 04:12:16;;;;;;;5.30;1.95;;;;;;;1.65;100.00;101847.78;5074541;28;20035;-40
2023/03/27 04:14:41;;;;;;;7.93;1.90;;;;;;;1.65;100.00;101857.03;5069884;28;20672;-39
2023/03/27 04:17:07;;;;;;;8.07;2.28;;;;;;;1.64;100.00;101852.72;5072251;28;20024;-39
2023/03/27 04:19:32;;;;;;;8.85;2.50;;;;;;;1.61;100.00;101853.38;5070822;28;20091;-40
2023/03/27 04:22:01;;;;;;;10.70;2.22;;;;;;;1.58;100.00;101851.47;5073010;28;20107;-40
2023/03/27 04:24:29;;;;;;;8.52;2.10;;;;;;;1.54;100.00;101872.28;5073032;28;20101;-40
2023/03/27 04:26:57;;;;;;;8.80;2.33;;;;;;;1.48;100.00;101871.78;5073234;28;20036;-41
2023/03/27 04:29:23;;;;;;;8.85;2.55;;;;;;;1.43;100.00;101867.97;5068752;28;20050;-40
2023/03/27 04:31:49;;;;;;;7.38;2.75;;;;;;;1.39;100.00;101873.56;5068742;28;20332;-39
2023/03/27 04:34:18;;;;;;;10.73;2.88;;;;;;;1.38;100.00;101883.56;5072410;28;20032;-39
2023/03/27 04:36:44;;;;;;;9.35;2.70;;;;;;;1.36;100.00;101880.94;5046924;28;20040;-40
2023/03/27 04:39:09;;;;;;;10.02;3.22;;;;;;;1.37;100.00;101890.31;5056433;28;20020;-40
2023/03/27 04:41:35;;;;;;;12.07;3.17;;;;;;;1.40;100.00;101900.69;5071665;28;20032;-40
2023/03/27 04:44:00;;;;;;;6.88;2.53;;;;;;;1.41;100.00;101904.13;5074000;28;20074;-39
2023/03/27 04:46:25;;;;;;;13.50;3.42;;;;;;;1.43;100.00;101902.59;5069866;28;20094;-39
2023/03/27 04:48:51;;;;;;;10.60;3.00;;;;;;;1.42;100.00;101898.28;5070643;28;20134;-40
2023/03/27 04:51:16;;;;;;;12.35;3.05;;;;;;;1.44;100.00;101905.22;5052882;28;20028;-39
2023/03/27 04:53:42;;;;;;;8.43;2.90;;;;;;;1.46;100.00;101906.28;5071735;28;20067;-40
2023/03/27 04:56:08;;;;;;;8.30;3.03;;;;;;;1.48;100.00;101909.81;5072583;28;20528;-40
2023/03/27 04:58:33;;;;;;;9.60;2.83;;;;;;;1.52;100.00;101914.38;5067168;28;20051;-40
2023/03/27 05:01:01;;;;;;;11.27;2.90;;;;;;;1.51;100.00;101911.69;5068928;28;20464;-40
2023/03/27 05:03:27;;;;;;;7.95;2.53;;;;;;;1.53;100.00;101922.84;5068146;28;20043;-40
2023/03/27 05:05:52;;;;;;;5.70;2.53;;;;;;;1.51;100.00;101917.63;5070695;28;20698;-40
2023/03/27 05:08:18;;;;;;;8.88;2.60;;;;;;;1.48;100.00;101925.00;5056659;28;20040;-40
2023/03/27 05:10:44;;;;;;;8.48;2.65;;;;;;;1.47;100.00;101935.91;5065662;28;20040;-40
2023/03/27 05:13:10;;;;;;;5.43;2.20;;;;;;;1.44;100.00;101934.75;5051222;28;20046;-40
2023/03/27 05:15:37;;;;;;;7.72;2.45;;;;;;;1.40;100.00;101931.13;5070372;28;20028;-40
2023/03/27 05:18:04;;;;;;;11.90;3.00;;;;;;;1.38;100.00;101937.69;5067318;28;20543;-40
2023/03/27 05:20:30;;;;;;;9.77;3.03;;;;;;;1.39;100.00;101941.97;5070494;28;20095;-41
2023/03/27 05:22:56;;;;;;;7.50;2.72;;;;;;;1.38;100.00;101945.28;5071081;28;20024;-40
2023/03/27 05:25:23;;;;;;;16.35;2.75;;;;;;;1.40;100.00;101948.84;5056926;28;20033;-41
2023/03/27 05:27:50;;;;;;;8.75;3.00;;;;;;;1.41;100.00;101955.69;5069427;28;20021;-40
2023/03/27 05:30:17;;;;;;;9.43;2.88;;;;;;;1.44;100.00;101965.19;5070884;28;20028;-39
2023/03/27 05:32:47;;;;;;;9.05;3.03;;;;;;;1.44;100.00;101966.06;5066780;28;20043;-40
2023/03/27 05:35:12;;;;;;;6.03;2.67;;;;;;;1.44;100.00;101961.00;5072684;28;20440;-40
2023/03/27 05:37:38;;;;;;;8.65;2.67;;;;;;;1.48;100.00;101957.06;5073959;28;20070;-39
2023/03/27 05:40:04;;;;;;;9.73;2.85;;;;;;;1.50;100.00;101966.56;5075954;28;20394;-41
2023/03/27 05:42:30;;;;;;;8.52;2.75;;;;;;;1.57;100.00;101965.41;5075458;28;20033;-41
2023/03/27 05:44:55;;;;;;;11.38;3.40;;;;;;;1.60;100.00;101979.25;5052940;28;20047;-47
2023/03/27 05:47:21;;;;;;;8.90;2.78;;;;;;;1.67;100.00;101975.56;5073880;28;20038;-45
2023/03/27 05:49:46;;;;;;;9.10;2.90;;;;;;;1.74;100.00;101985.41;5077897;28;20627;-47
2023/03/27 05:52:11;;;;;;;12.32;3.47;;;;;;;1.78;100.00;101991.66;5073380;28;20069;-46
2023/03/27 05:54:37;;;;;;;10.00;2.67;;;;;;;1.86;100.00;101991.50;5073808;28;20028;-47
2023/03/27 05:57:02;;;;;;;7.68;2.85;;;;;;;1.93;100.00;102008.09;5074552;28;20056;-47
2023/03/27 05:59:28;;;;;;;6.78;2.70;;;;;;;2.00;100.00;102019.59;5072242;28;20043;-45
2023/03/27 06:01:54;;;;;;;10.45;2.65;;;;;;;2.07;100.00;102020.25;5071676;28;20043;-46
2023/03/27 06:04:21;;;;;;;7.68;2.13;;;;;;;2.07;100.00;102026.97;5055413;28;20033;-47
2023/03/27 06:06:46;;;;;;;7.82;1.95;;;;;;;2.02;100.00;102025.72;5070358;28;20900;-45
2023/03/27 06:09:11;;;;;;;6.38;2.25;;;;;;;1.97;100.00;102022.81;5077718;28;20147;-47
2023/03/27 06:11:38;;;;;;;5.60;1.30;;;;;;;1.84;100.00;102012.44;5072200;28;20090;-47
2023/03/27 06:14:03;;;;;;;5.28;1.60;;;;;;;1.70;100.00;102010.41;5071629;28;20392;-46
2023/03/27 06:16:29;;;;;;;2.88;1.42;;;;;;;1.61;100.00;102013.97;5073745;28;20074;-45
2023/03/27 06:18:55;;;;;;;7.53;1.58;;;;;;;1.56;100.00;102016.88;5052039;28;20587;-46
2023/03/27 06:21:20;;;;;;;3.05;1.00;;;;;;;1.52;100.00;102015.75;5060354;28;20074;-48
2023/03/27 06:23:46;;;;;;;4.85;1.50;;;;;;;1.51;100.00;102016.50;5076348;28;20409;-48
2023/03/27 06:26:12;;;;;;;6.68;1.67;;;;;;;1.51;100.00;102019.03;5071995;28;20024;-48
2023/03/27 06:28:38;;;;;;;3.70;1.30;;;;;;;1.52;100.00;102025.91;5073905;28;20078;-46
2023/03/27 06:31:04;;;;;;;7.53;1.50;;;;;;;1.54;100.00;102026.03;5072844;28;20040;-48
2023/03/27 06:33:30;;;;;;;6.13;1.50;;;;;;;1.53;100.00;102037.81;5072642;28;20066;-49
2023/03/27 06:36:01;;;;;;;8.93;1.70;;;;;;;1.55;100.00;102041.34;5073585;28;20020;-45
2023/03/27 06:38:30;;;;;;;4.75;1.70;;;;;;;1.56;100.00;102040.59;5075298;28;20029;-46
2023/03/27 06:40:55;;;;;;;5.80;1.70;;;;;;;1.76;100.00;102042.25;5070106;28;20386;-46
2023/03/27 06:43:21;;;;;;;6.43;1.88;;;;;;;2.09;100.00;102049.16;5071304;28;20032;-45
2023/03/27 06:45:48;;;;;;;6.20;1.75;;;;;;;2.50;100.00;102036.34;5056707;28;20031;-49
2023/03/27 06:48:15;;;;;;;5.40;1.77;;;;;;;2.79;100.00;102048.81;5071521;28;20058;-46
2023/03/27 06:50:41;;;;;;;6.00;1.77;;;;;;;3.08;100.00;102050.16;5072368;28;20467;-46
2023/03/27 06:53:06;;;;;;;6.10;1.90;;;;;;;3.39;100.00;102058.47;5065417;28;20485;-45
2023/03/27 06:55:32;;;;;;;4.50;1.30;;;;;;;3.70;100.00;102057.47;5054482;28;20123;-46
2023/03/27 06:58:00;;;;;;;4.75;1.42;;;;;;;3.99;100.00;102066.34;5070154;28;20028;-47
2023/03/27 07:00:29;;;;;;;5.78;1.40;;;;;;;4.17;100.00;102071.91;5072804;28;20367;-46
2023/03/27 07:03:04;;;;;;;6.38;2.10;;;;;;;4.43;100.00;102068.69;5069963;28;20044;-46
2023/03/27 07:05:35;;;;;;;2.53;1.30;;;;;;;4.61;99.29;102080.22;5071869;28;20025;-48
2023/03/27 07:08:02;;;;;;;6.93;1.48;;;;;;;4.65;96.57;102077.09;5079227;28;20123;-50
2023/03/27 07:10:27;;;;;;;5.30;1.40;;;;;;;4.75;96.34;102091.41;5074469;28;20060;-46
2023/03/27 07:12:56;;;;;;;4.97;1.60;;;;;;;4.83;95.20;102086.06;5072878;28;20083;-45
2023/03/27 07:15:23;;;;;;;5.88;1.40;;;;;;;5.08;96.04;102087.75;5071504;28;20042;-47
2023/03/27 07:18:00;;;;;;;8.90;1.60;;;;;;;5.20;92.97;102091.16;5071580;28;20035;-46
2023/03/27 07:20:27;;;;;;;4.85;1.23;;;;;;;5.17;87.93;102090.97;5074529;28;20109;-45
2023/03/27 07:23:00;;;;;;;6.45;1.02;;;;;;;5.36;90.62;102093.13;5074379;28;20505;-46
2023/03/27 07:25:35;;;;;;;6.72;1.70;;;;;;;5.35;91.23;102099.00;5071667;28;20117;-42
2023/03/27 07:28:02;;;;;;;4.78;1.50;;;;;;;5.16;88.57;102099.41;5070959;28;20127;-42
2023/03/27 07:30:28;;;;;;;5.45;1.60;;;;;;;4.90;89.71;102104.31;5069414;28;20114;-42
2023/03/27 07:32:53;;;;;;;6.75;1.73;;;;;;;4.62;90.56;102107.47;5069193;28;20107;-41
2023/03/27 07:35:18;;;;;;;6.50;1.60;;;;;;;4.41;91.99;102103.38;5073804;28;20035;-42
2023/03/27 07:37:44;;;;;;;5.38;1.75;;;;;;;4.51;92.88;102104.16;5068552;28;20036;-42
2023/03/27 07:40:12;;;;;;;6.05;1.65;;;;;;;4.69;93.10;102113.88;5069043;28;20036;-42
2023/03/27 07:42:43;;;;;;;8.85;1.55;;;;;;;4.78;90.75;102115.41;5071593;28;20036;-41
2023/03/27 07:45:10;;;;;;;5.35;1.52;;;;;;;4.91;88.26;102113.72;5072350;28;20028;-41
2023/03/27 07:47:35;;;;;;;8.70;1.55;;;;;;;4.93;87.85;102110.53;5070173;28;20105;-49
2023/03/27 07:50:01;;;;;;;6.95;1.55;;;;;;;5.05;87.98;102113.94;5051543;28;20713;-46
2023/03/27 07:52:28;;;;;;;7.40;1.45;;;;;;;5.12;86.74;102105.06;5074083;28;20040;-42
2023/03/27 07:54:55;;;;;;;4.75;1.40;;;;;;;5.20;86.47;102119.22;5069015;28;20082;-42
2023/03/27 07:57:21;;;;;;;8.40;1.40;;;;;;;5.32;86.45;102112.41;5073345;28;20394;-41
2023/03/27 07:59:46;;;;;;;7.38;1.42;;;;;;;5.36;82.07;102118.63;5065271;28;20389;-42
2023/03/27 08:02:12;;;;;;;8.23;1.83;;;;;;;5.39;80.85;102121.38;5073719;28;20378;-41
2023/03/27 08:04:38;;;;;;;5.70;1.40;;;;;;;5.38;80.46;102128.13;5068645;28;20032;-42
2023/03/27 08:07:04;;;;;;;9.90;1.90;;;;;;;5.37;79.84;102128.03;5083031;28;20028;-42
2023/03/27 08:09:29;;;;;;;3.42;1.30;;;;;;;5.27;81.21;102130.72;5078200;28;20574;-42
2023/03/27 08:11:54;;;;;;;7.00;1.63;;;;;;;5.20;81.28;102126.88;5069242;28;20031;-42
2023/03/27 08:14:20;;;;;;;9.27;1.83;;;;;;;5.24;82.05;102128.84;5070544;28;20106;-41
2023/03/27 08:16:45;;;;;;;12.05;1.50;;;;;;;5.26;81.05;102132.38;5072402;28;20012;-42
2023/03/27 08:19:11;;;;;;;4.75;1.20;;;;;;;5.37;82.69;102131.47;5070472;28;20024;-41
2023/03/27 08:21:36;;;;;;;3.10;0.98;;;;;;;5.43;81.24;102135.22;5072765;28;20029;-41
2023/03/27 08:24:03;;;;;;;6.88;1.17;;;;;;;5.41;80.06;102140.25;5056283;28;20525;-42
2023/03/27 08:26:30;;;;;;;5.65;1.20;;;;;;;5.42;80.45;102143.66;5070655;28;20032;-41
2023/03/27 08:28:56;;;;;;;7.95;2.08;;;;;;;5.48;80.93;102144.97;5070999;28;20038;-41
2023/03/27 08:31:22;;;;;;;5.38;1.00;;;;;;;5.61;78.70;102152.69;5074323;28;20044;-42
2023/03/27 08:33:48;;;;;;;5.78;1.10;;;;;;;5.65;77.75;102158.91;5068464;28;20474;-41
2023/03/27 08:36:13;;;;;;;6.68;0.80;;;;;;;5.53;75.80;102156.38;5070139;28;20030;-43
2023/03/27 08:38:42;;;;;;;3.65;0.93;;;;;;;5.53;76.60;102153.84;5073457;28;20024;-41
2023/03/27 08:41:29;;;;;;;2.38;0.85;;;;;;;5.64;77.28;102162.19;5070365;28;20063;-41
2023/03/27 08:43:58;;;;;;;6.15;1.15;;;;;;;5.79;76.47;102160.72;5068337;28;20015;-42
2023/03/27 08:46:35;;;;;;;4.60;1.02;;;;;;;5.85;75.92;102158.56;5068313;28;20429;-42
2023/03/27 08:49:13;;;;;;;4.93;0.90;;;;;;;5.84;77.33;102156.81;5069601;28;20530;-42
2023/03/27 08:51:46;;;;;;;7.10;1.08;;;;;;;5.79;77.44;102162.38;5067516;28;20043;-42
2023/03/27 08:54:18;;;;;;;3.50;0.80;;;;;;;5.80;75.95;102177.78;5070287;28;21169;-42
2023/03/27 08:56:44;;;;;;;5.20;0.68;;;;;;;5.77;75.23;102176.72;5074889;28;20394;-43
2023/03/27 08:59:21;;;;;;;5.32;1.05;;;;;;;5.72;75.42;102173.84;5070569;28;20040;-42
2023/03/27 09:02:07;;;;;;;5.38;1.10;;;;;;;5.70;75.75;102182.16;5073132;28;20044;-42
2023/03/27 09:04:47;;;;;;;5.80;0.90;;;;;;;5.83;76.35;102187.34;5072668;28;20024;-40
2023/03/27 09:07:18;;;;;;;6.38;1.50;;;;;;;6.06;74.14;102189.78;5070116;28;20038;-40
2023/03/27 09:09:57;;;;;;;4.75;0.90;;;;;;;6.28;71.62;102188.69;5064716;28;20028;-40
2023/03/27 09:12:29;;;;;;;;;;;;;;;6.55;70.62;102200.75;5073912;28;20031;-41
2023/03/27 09:14:58;;;;;;;4.13;0.95;;;;;;;6.62;67.09;102199.47;5071364;28;19927;-40
2023/03/27 09:17:33;;;;;;;3.63;0.47;;;;;;;6.56;70.00;102196.50;5068748;28;20024;-41
2023/03/27 09:20:06;;;;;;;2.92;0.52;;;;;;;5.93;73.16;102219.50;5069765;28;20055;-41
2023/03/27 09:22:44;;;;;;;3.35;0.80;;;;;;;5.21;77.70;102230.63;5072547;28;20552;-40
2023/03/27 09:25:27;;;;;;;6.18;1.23;;;;;;;4.57;84.56;102256.56;5071302;28;20032;-40
2023/03/27 09:27:53;;;;;;;1.45;0.50;;;;;;;3.96;89.69;102251.94;5067616;28;20111;-40
2023/03/27 09:30:31;;;;;;;2.00;0.73;;;;;;;3.67;92.57;102229.31;5067113;28;20056;-41
2023/03/27 09:33:06;;;;;;;2.10;0.50;;;;;;;3.50;94.12;102233.09;5071149;28;20135;-40
2023/03/27 09:35:34;;;;;;;2.88;0.63;;;;;;;3.41;96.77;102240.00;5072946;28;20059;-41
2023/03/27 09:38:02;;;;;;;4.00;0.80;;;;;;;3.39;98.99;102233.91;5068856;28;20031;-41
2023/03/27 09:40:52;;;;;;;3.47;0.77;;;;;;;3.44;99.85;102233.50;5069678;28;20032;-40
2023/03/27 09:43:25;;;;;;;2.97;0.85;;;;;;;3.65;100.00;102231.75;5064807;28;20290;-40
2023/03/27 09:45:52;;;;;;;3.78;0.80;;;;;;;3.86;100.00;102236.72;5067327;28;20052;-40
2023/03/27 09:48:49;;;;;;;2.33;0.70;;;;;;;4.06;100.00;102234.03;5074704;28;20032;-40
2023/03/27 09:51:45;;;;;;;5.68;1.02;;;;;;;4.37;100.00;102236.31;5068879;28;20063;-40
2023/03/27 09:54:13;;;;;;;4.53;0.90;;;;;;;4.67;99.60;102235.16;5067798;28;20380;-40
2023/03/27 09:56:45;;;;;;;2.67;0.80;;;;;;;4.91;98.94;102243.72;5066539;28;20054;-40
2023/03/27 09:59:39;;;;;;;4.25;0.90;;;;;;;5.13;95.89;102235.97;5074093;28;20028;-41
2023/03/27 10:02:20;;;;;;;4.20;1.40;;;;;;;5.32;92.71;102250.13;5067034;28;20045;-41
2023/03/27 10:05:11;;;;;;;5.20;0.95;;;;;;;5.38;88.47;102247.16;5068655;28;20032;-41
2023/03/27 10:07:38;;;;;;;3.22;0.85;;;;;;;5.59;87.82;102247.78;5071965;28;20020;-41
2023/03/27 10:10:07;;;;;;;6.45;1.00;;;;;;;5.77;85.59;102240.53;5070847;28;20065;-40
2023/03/27 10:12:35;;;;;;;9.35;1.13;;;;;;;5.97;81.81;102236.81;5069846;28;20048;-40
2023/03/27 10:15:01;;;;;;;4.68;0.85;;;;;;;6.30;83.54;102236.53;5069937;28;20046;-41
2023/03/27 10:17:33;;;;;;;7.22;0.90;;;;;;;6.34;76.52;102235.97;5073347;28;20024;-42
2023/03/27 10:20:07;;;;;;;4.75;0.60;;;;;;;6.27;78.65;102245.69;5069303;28;20143;-41
2023/03/27 10:22:38;;;;;;;6.82;1.20;;;;;;;6.16;79.70;102242.38;5074628;28;20843;-41
2023/03/27 10:25:18;;;;;;;5.38;1.10;;;;;;;6.08;81.51;102251.22;5081978;28;20024;-41
2023/03/27 10:27:43;;;;;;;9.52;1.15;;;;;;;5.96;79.89;102248.69;5074811;28;20785;-41
2023/03/27 10:30:36;;;;;;;5.95;0.82;;;;;;;5.86;82.24;102246.25;5077119;28;20658;-40
2023/03/27 10:33:03;;;;;;;6.20;1.25;;;;;;;5.71;80.42;102247.75;5066883;28;20049;-41
2023/03/27 10:35:36;;;;;;;5.90;1.15;;;;;;;5.79;78.41;102246.63;5073654;28;20028;-41
2023/03/27 10:38:10;;;;;;;6.40;1.00;;;;;;;6.02;75.49;102244.00;5073343;28;20138;-41
2023/03/27 10:40:37;;;;;;;5.25;0.90;;;;;;;6.31;70.17;102245.06;5075593;28;20024;-40
2023/03/27 10:43:08;;;;;;;2.55;0.60;;;;;;;6.45;71.37;102260.56;5053233;28;20033;-40
2023/03/27 10:45:45;;;;;;;1.95;0.40;;;;;;;6.15;75.94;102278.94;5072551;28;20036;-40
2023/03/27 10:48:27;;;;;;;2.15;0.60;;;;;;;5.47;79.69;102311.59;5057585;28;20610;-41
2023/03/27 10:50:59;;;;;;;4.03;0.60;;;;;;;5.09;82.60;102306.25;5073056;28;20554;-39
2023/03/27 10:53:49;;;;;;;2.63;0.65;;;;;;;4.92;85.49;102317.78;5076994;28;20036;-40
2023/03/27 10:56:37;;;;;;;3.63;0.70;;;;;;;4.60;90.96;102328.09;5070528;28;20024;-41
2023/03/27 10:59:17;;;;;;;9.00;0.90;;;;;;;4.27;93.71;102314.59;5071141;28;20028;-41
2023/03/27 11:01:50;;;;;;;3.83;0.77;;;;;;;3.96;95.54;102321.53;5072414;28;20428;-41
2023/03/27 11:04:22;;;;;;;2.58;0.70;;;;;;;3.70;94.75;102324.59;5068973;28;20033;-41
2023/03/27 11:06:49;;;;;;;3.38;0.70;;;;;;;3.60;98.23;102327.16;5070059;28;20045;-40
2023/03/27 11:09:30;;;;;;;3.63;0.85;;;;;;;3.52;95.09;102327.28;5074745;28;20032;-40
2023/03/27 11:12:01;;;;;;;2.15;0.52;;;;;;;3.44;96.37;102326.69;5070864;28;20115;-40
2023/03/27 11:14:35;;;;;;;2.38;0.70;;;;;;;3.54;98.70;102313.97;5070384;28;20032;-42
2023/03/27 11:17:04;;;;;;;6.20;1.35;;;;;;;3.74;96.89;102318.06;5071123;28;20024;-42
2023/03/27 11:19:42;;;;;;;1.95;0.68;;;;;;;3.97;98.41;102314.78;5078510;28;20026;-42
2023/03/27 11:22:34;;;;;;;6.97;1.20;;;;;;;4.22;94.30;102307.38;5071245;28;20020;-43
2023/03/27 11:25:06;;;;;;;7.80;1.00;;;;;;;4.52;94.83;102308.81;5072383;28;20052;-43
2023/03/27 11:27:40;;;;;;;4.93;0.82;;;;;;;4.77;90.49;102306.44;5072351;28;20021;-43
2023/03/27 11:30:15;;;;;;;6.00;1.05;;;;;;;4.99;89.50;102307.25;5070643;28;20020;-42
2023/03/27 11:32:52;;;;;;;5.55;1.30;;;;;;;5.20;86.99;102301.94;5055677;28;20052;-42
2023/03/27 11:35:31;;;;;;;6.95;1.25;;;;;;;5.42;87.71;102304.38;5072548;28;20033;-44
2023/03/27 11:38:00;;;;;;;10.23;1.73;;;;;;;5.63;85.21;102303.34;5053522;28;20034;-42
2023/03/27 11:40:38;;;;;;;9.23;1.20;;;;;;;5.81;83.99;102303.75;5076541;28;20055;-43
2023/03/27 11:43:04;;;;;;;9.18;1.30;;;;;;;6.26;83.13;102306.09;5076083;28;20028;-41